Time;durP1;ratioP1;P1;durP2;ratioP2;P2;SDS_P1;SDS_P2;PMS_P1;PMS_P2;Temp;Humidity;BMP_temperature;BMP_pressure;BME280_temperature;BME280_humidity;BME280_pressure;Samples;Min_cycle;Max_cycle;Signal;HPM_P1;HPM_P2
2022/04/03 00:00:39;;;;;;;4.75;2.75;;;;;;;;;;4983395;28;20113;-67
2022/04/03 00:03:04;;;;;;;12.00;4.03;;;;;;;;;;5001949;28;20094;-68
2022/04/03 00:05:29;;;;;;;7.35;3.67;;;;;;;;;;4999284;28;20022;-70
2022/04/03 00:07:55;;;;;;;10.75;3.83;;;;;;;;;;4993199;28;20014;-67
2022/04/03 00:10:21;;;;;;;6.28;3.05;;;;;;;;;;5006809;28;20086;-67
2022/04/03 00:12:47;;;;;;;13.02;3.65;;;;;;;;;;4999403;28;20394;-67
2022/04/03 00:15:14;;;;;;;5.75;3.47;;;;;;;;;;5005277;28;20028;-67
2022/04/03 00:17:40;;;;;;;10.20;3.65;;;;;;;;;;4997780;28;20029;-68
2022/04/03 00:20:05;;;;;;;8.05;3.60;;;;;;;;;;5003165;28;20018;-68
2022/04/03 00:22:30;;;;;;;6.05;2.90;;;;;;;;;;4998132;28;20140;-70
2022/04/03 00:24:55;;;;;;;14.10;3.70;;;;;;;;;;5005954;28;20018;-68
2022/04/03 00:27:21;;;;;;;7.25;2.90;;;;;;;;;;4998234;28;20025;-70
2022/04/03 00:29:46;;;;;;;5.15;2.95;;;;;;;;;;5007924;28;20103;-70
2022/04/03 00:32:11;;;;;;;8.05;2.97;;;;;;;;;;5004103;28;20097;-68
2022/04/03 00:34:36;;;;;;;6.80;3.50;;;;;;;;;;5005707;28;20116;-68
2022/04/03 00:37:02;;;;;;;7.03;3.25;;;;;;;;;;4993816;28;20018;-68
2022/04/03 00:39:27;;;;;;;4.72;2.78;;;;;;;;;;4998609;28;20030;-68
2022/04/03 00:41:52;;;;;;;5.65;2.88;;;;;;;;;;5000375;28;20014;-68
2022/04/03 00:44:18;;;;;;;7.95;2.85;;;;;;;;;;5001186;28;20021;-68
2022/04/03 00:46:43;;;;;;;7.05;3.15;;;;;;;;;;5000150;28;20036;-69
2022/04/03 00:49:08;;;;;;;10.50;4.70;;;;;;;;;;5005292;28;20116;-68
2022/04/03 00:51:34;;;;;;;4.65;2.67;;;;;;;;;;5003200;28;20022;-68
2022/04/03 00:54:00;;;;;;;6.53;3.35;;;;;;;;;;4997124;28;20014;-68
2022/04/03 00:56:25;;;;;;;5.47;3.15;;;;;;;;;;5001403;28;20029;-69
2022/04/03 00:58:51;;;;;;;8.70;3.10;;;;;;;;;;5009558;28;20030;-68
2022/04/03 01:01:16;;;;;;;4.30;2.70;;;;;;;;;;4996570;28;20080;-68
2022/04/03 01:03:42;;;;;;;7.07;3.17;;;;;;;;;;5003763;28;20019;-68
2022/04/03 01:06:07;;;;;;;6.65;3.65;;;;;;;;;;5005654;28;20022;-68
2022/04/03 01:08:33;;;;;;;4.22;2.58;;;;;;;;;;4996961;28;20570;-68
2022/04/03 01:10:58;;;;;;;6.65;3.28;;;;;;;;;;5004747;28;20022;-69
2022/04/03 01:13:25;;;;;;;5.53;3.38;;;;;;;;;;5004383;28;20541;-68
2022/04/03 01:15:54;;;;;;;8.18;3.42;;;;;;;;;;4995446;28;21005;-70
2022/04/03 01:18:19;;;;;;;7.38;2.88;;;;;;;;;;5008661;28;20088;-67
2022/04/03 01:20:45;;;;;;;7.22;3.05;;;;;;;;;;5003860;28;20065;-71
2022/04/03 01:23:10;;;;;;;5.50;3.05;;;;;;;;;;5000894;28;20058;-68
2022/04/03 01:25:35;;;;;;;5.03;2.72;;;;;;;;;;5003840;28;20376;-68
2022/04/03 01:28:00;;;;;;;8.88;3.63;;;;;;;;;;5005718;28;20018;-68
2022/04/03 01:30:26;;;;;;;9.10;3.05;;;;;;;;;;4998709;28;20069;-68
2022/04/03 01:32:51;;;;;;;9.15;3.80;;;;;;;;;;5004139;28;20049;-68
2022/04/03 01:35:17;;;;;;;7.93;3.45;;;;;;;;;;4996719;28;20114;-68
2022/04/03 01:37:42;;;;;;;5.22;3.25;;;;;;;;;;5002795;28;20018;-68
2022/04/03 01:40:08;;;;;;;10.60;3.63;;;;;;;;;;4989039;28;20108;-67
2022/04/03 01:42:33;;;;;;;9.90;3.10;;;;;;;;;;4997069;28;20026;-68
2022/04/03 01:44:59;;;;;;;7.22;3.53;;;;;;;;;;4989913;28;20032;-70
2022/04/03 01:47:24;;;;;;;11.55;3.85;;;;;;;;;;4994482;28;20022;-68
2022/04/03 01:49:49;;;;;;;7.60;3.45;;;;;;;;;;5000149;28;20041;-70
2022/04/03 01:52:14;;;;;;;7.82;3.33;;;;;;;;;;4996555;28;20025;-68
2022/04/03 01:54:40;;;;;;;11.23;3.97;;;;;;;;;;5001033;28;20381;-67
2022/04/03 01:57:05;;;;;;;10.23;3.55;;;;;;;;;;5022358;23;20046;-69
2022/04/03 01:59:31;;;;;;;9.02;3.60;;;;;;;;;;4992906;28;20076;-69
2022/04/03 02:01:56;;;;;;;10.05;3.45;;;;;;;;;;5016810;28;20084;-69
2022/04/03 02:04:21;;;;;;;7.68;2.95;;;;;;;;;;5022489;28;20032;-69
2022/04/03 02:06:46;;;;;;;5.75;3.08;;;;;;;;;;5027959;28;20025;-69
2022/04/03 02:09:11;;;;;;;5.35;3.00;;;;;;;;;;5026601;28;20029;-69
2022/04/03 02:11:38;;;;;;;8.88;3.25;;;;;;;;;;5017747;28;20022;-69
2022/04/03 02:14:05;;;;;;;9.77;3.88;;;;;;;;;;5024072;28;20025;-69
2022/04/03 02:16:30;;;;;;;6.93;3.72;;;;;;;;;;5023030;28;20090;-69
2022/04/03 02:18:55;;;;;;;8.10;3.22;;;;;;;;;;5022372;28;20021;-69
2022/04/03 02:21:21;;;;;;;7.93;3.00;;;;;;;;;;5023151;28;20036;-69
2022/04/03 02:23:46;;;;;;;5.40;2.88;;;;;;;;;;5018696;28;20065;-69
2022/04/03 02:26:11;;;;;;;8.57;3.20;;;;;;;;;;5022158;28;20072;-69
2022/04/03 02:28:39;;;;;;;11.23;3.03;;;;;;;;;;5019964;28;20086;-69
2022/04/03 02:31:04;;;;;;;5.28;3.15;;;;;;;;;;5016551;28;20120;-69
2022/04/03 02:33:29;;;;;;;7.65;3.47;;;;;;;;;;5019242;28;20469;-69
2022/04/03 02:35:54;;;;;;;7.22;3.75;;;;;;;;;;5025599;28;20026;-69
2022/04/03 02:38:19;;;;;;;6.00;3.50;;;;;;;;;;5015534;28;20026;-69
2022/04/03 02:40:45;;;;;;;9.02;3.17;;;;;;;;;;5008585;28;20069;-69
2022/04/03 02:43:11;;;;;;;7.00;3.80;;;;;;;;;;5023020;28;20722;-69
2022/04/03 02:45:36;;;;;;;14.00;3.60;;;;;;;;;;5021325;28;20021;-69
2022/04/03 02:48:02;;;;;;;8.93;3.20;;;;;;;;;;5021001;28;20037;-69
2022/04/03 02:50:27;;;;;;;9.23;3.60;;;;;;;;;;5008558;28;20185;-70
2022/04/03 02:52:54;;;;;;;7.30;3.92;;;;;;;;;;5019642;28;20027;-71
2022/04/03 02:55:19;;;;;;;5.22;3.20;;;;;;;;;;5014202;28;20026;-69
2022/04/03 02:57:45;;;;;;;6.72;3.17;;;;;;;;;;5015475;28;20104;-69
2022/04/03 03:00:14;;;;;;;8.93;3.92;;;;;;;;;;5013402;28;20053;-69
2022/04/03 03:02:40;;;;;;;10.00;4.00;;;;;;;;;;5027354;28;20095;-69
2022/04/03 03:05:05;;;;;;;5.45;3.45;;;;;;;;;;5012633;28;20022;-69
2022/04/03 03:07:41;;;;;;;7.50;3.63;;;;;;;;;;5012195;28;20029;-69
2022/04/03 03:10:07;;;;;;;7.13;3.60;;;;;;;;;;5024105;28;20014;-69
2022/04/03 03:12:33;;;;;;;11.55;3.88;;;;;;;;;;5017536;28;20026;-69
2022/04/03 03:14:58;;;;;;;8.65;4.10;;;;;;;;;;5026577;28;20084;-69
2022/04/03 03:17:23;;;;;;;8.50;3.83;;;;;;;;;;5015734;28;20050;-69
2022/04/03 03:19:48;;;;;;;7.38;4.05;;;;;;;;;;5019230;28;20485;-69
2022/04/03 03:22:14;;;;;;;9.15;4.00;;;;;;;;;;5025991;28;20029;-69
2022/04/03 03:24:39;;;;;;;7.63;3.83;;;;;;;;;;5022324;28;20022;-69
2022/04/03 03:27:04;;;;;;;4.78;3.00;;;;;;;;;;5021274;28;20022;-69
2022/04/03 03:29:30;;;;;;;6.57;3.60;;;;;;;;;;5008380;28;20118;-69
2022/04/03 03:31:55;;;;;;;9.38;3.53;;;;;;;;;;5020790;28;20017;-69
2022/04/03 03:34:21;;;;;;;9.23;4.30;;;;;;;;;;5029072;28;20107;-69
2022/04/03 03:36:46;;;;;;;9.07;3.83;;;;;;;;;;5025082;28;20108;-69
2022/04/03 03:39:12;;;;;;;8.02;3.58;;;;;;;;;;5016697;28;20044;-69
2022/04/03 03:41:37;;;;;;;21.25;8.90;;;;;;;;;;5019916;28;20029;-69
2022/04/03 03:44:09;;;;;;;5.78;3.60;;;;;;;;;;5011387;28;20083;-69
2022/04/03 03:46:35;;;;;;;8.68;3.80;;;;;;;;;;5020597;28;20025;-69
2022/04/03 03:49:00;;;;;;;6.70;3.58;;;;;;;;;;5020807;28;20026;-69
2022/04/03 03:51:25;;;;;;;10.13;3.70;;;;;;;;;;5022049;28;20049;-69
2022/04/03 03:53:50;;;;;;;8.27;3.70;;;;;;;;;;5022941;28;20481;-69
2022/04/03 03:56:15;;;;;;;14.90;4.05;;;;;;;;;;5015198;28;20018;-69
2022/04/03 03:58:40;;;;;;;9.80;4.18;;;;;;;;;;5020869;28;20624;-69
2022/04/03 04:01:06;;;;;;;8.63;4.25;;;;;;;;;;5027871;28;20025;-69
2022/04/03 04:03:31;;;;;;;9.25;4.38;;;;;;;;;;5015467;28;20018;-69
2022/04/03 04:05:56;;;;;;;8.27;4.28;;;;;;;;;;5030271;28;20124;-69
2022/04/03 04:08:21;;;;;;;9.90;4.18;;;;;;;;;;5024771;28;20049;-69
2022/04/03 04:10:46;;;;;;;18.95;4.40;;;;;;;;;;5022171;28;20072;-69
2022/04/03 04:13:12;;;;;;;10.93;3.77;;;;;;;;;;5018027;28;20027;-69
2022/04/03 04:15:37;;;;;;;19.17;5.13;;;;;;;;;;5027011;28;20685;-69
2022/04/03 04:18:02;;;;;;;10.38;3.83;;;;;;;;;;5024898;28;20026;-69
2022/04/03 04:20:28;;;;;;;8.77;3.60;;;;;;;;;;5023635;28;20106;-69
2022/04/03 04:22:53;;;;;;;9.98;4.47;;;;;;;;;;5028151;28;20036;-69
2022/04/03 04:25:19;;;;;;;11.35;4.32;;;;;;;;;;5022134;28;20025;-69
2022/04/03 04:27:45;;;;;;;11.63;4.85;;;;;;;;;;5016321;28;20025;-69
2022/04/03 04:30:11;;;;;;;13.80;4.65;;;;;;;;;;5026395;28;20470;-69
2022/04/03 04:32:36;;;;;;;8.20;4.03;;;;;;;;;;5019215;28;20120;-69
2022/04/03 04:35:03;;;;;;;7.85;4.45;;;;;;;;;;5025625;28;20144;-69
2022/04/03 04:37:28;;;;;;;6.53;4.10;;;;;;;;;;5024509;28;20017;-69
2022/04/03 04:39:54;;;;;;;6.38;3.78;;;;;;;;;;5017189;28;20022;-69
2022/04/03 04:42:19;;;;;;;8.13;4.47;;;;;;;;;;5021637;28;20405;-69
2022/04/03 04:44:44;;;;;;;10.75;4.57;;;;;;;;;;5017871;28;20127;-69
2022/04/03 04:47:09;;;;;;;10.00;4.60;;;;;;;;;;5028354;28;20033;-69
2022/04/03 04:49:35;;;;;;;9.20;4.60;;;;;;;;;;5021287;28;20067;-69
2022/04/03 04:52:00;;;;;;;12.23;5.15;;;;;;;;;;5022207;28;20096;-69
2022/04/03 04:54:26;;;;;;;8.60;4.50;;;;;;;;;;5017477;28;20461;-69
2022/04/03 04:56:52;;;;;;;14.13;4.45;;;;;;;;;;5015095;28;20022;-69
2022/04/03 04:59:17;;;;;;;11.27;4.68;;;;;;;;;;5025116;28;20039;-69
2022/04/03 05:01:42;;;;;;;8.88;4.45;;;;;;;;;;5007519;28;20030;-69
2022/04/03 05:04:08;;;;;;;11.70;4.53;;;;;;;;;;5022369;28;20025;-69
2022/04/03 05:06:34;;;;;;;14.77;4.63;;;;;;;;;;5025482;28;20038;-69
2022/04/03 05:08:59;;;;;;;9.07;4.70;;;;;;;;;;5019997;28;20101;-69
2022/04/03 05:11:24;;;;;;;8.63;4.47;;;;;;;;;;5026753;28;20438;-69
2022/04/03 05:13:50;;;;;;;7.90;4.38;;;;;;;;;;5019143;28;20022;-69
2022/04/03 05:16:15;;;;;;;10.52;4.38;;;;;;;;;;5023609;28;20022;-69
2022/04/03 05:18:40;;;;;;;11.88;4.40;;;;;;;;;;5025141;28;20021;-69
2022/04/03 05:21:07;;;;;;;14.98;4.57;;;;;;;;;;5017502;28;20525;-69
2022/04/03 05:23:33;;;;;;;10.85;4.72;;;;;;;;;;5008263;28;20026;-69
2022/04/03 05:25:58;;;;;;;12.40;5.93;;;;;;;;;;5023984;28;20026;-69
2022/04/03 05:28:23;;;;;;;11.40;4.65;;;;;;;;;;5016314;28;20105;-69
2022/04/03 05:30:49;;;;;;;7.38;4.20;;;;;;;;;;5012695;28;20018;-69
2022/04/03 05:33:14;;;;;;;10.85;4.30;;;;;;;;;;5029476;28;20143;-69
2022/04/03 05:35:39;;;;;;;10.13;4.15;;;;;;;;;;5019112;28;20079;-69
2022/04/03 05:38:05;;;;;;;7.95;4.22;;;;;;;;;;5014788;28;20049;-69
2022/04/03 05:40:30;;;;;;;14.80;4.57;;;;;;;;;;5022549;28;20378;-69
2022/04/03 05:42:55;;;;;;;11.13;4.28;;;;;;;;;;5020564;28;20076;-71
2022/04/03 05:45:20;;;;;;;12.43;4.88;;;;;;;;;;5019629;28;20028;-69
2022/04/03 05:47:45;;;;;;;8.52;4.40;;;;;;;;;;5017657;28;20029;-69
2022/04/03 05:50:11;;;;;;;10.45;4.55;;;;;;;;;;5019493;28;20466;-69
2022/04/03 05:52:40;;;;;;;8.25;4.57;;;;;;;;;;5026305;28;20326;-69
2022/04/03 05:55:08;;;;;;;9.80;4.57;;;;;;;;;;5022934;28;20374;-69
2022/04/03 05:57:33;;;;;;;10.15;4.60;;;;;;;;;;5015214;28;20053;-69
2022/04/03 05:59:58;;;;;;;11.35;4.90;;;;;;;;;;5020845;28;20030;-69
2022/04/03 06:02:23;;;;;;;10.45;5.38;;;;;;;;;;5012589;28;20025;-69
2022/04/03 06:04:48;;;;;;;8.30;4.40;;;;;;;;;;5015509;28;20040;-69
2022/04/03 06:07:14;;;;;;;12.32;4.25;;;;;;;;;;5016823;28;20268;-69
2022/04/03 06:09:39;;;;;;;9.88;4.63;;;;;;;;;;5014581;28;20052;-69
2022/04/03 06:12:04;;;;;;;10.32;4.80;;;;;;;;;;5016332;28;20509;-69
2022/04/03 06:14:29;;;;;;;10.73;5.15;;;;;;;;;;5012712;28;20018;-69
2022/04/03 06:16:54;;;;;;;13.25;4.82;;;;;;;;;;5014649;28;20033;-68
2022/04/03 06:19:20;;;;;;;13.20;5.40;;;;;;;;;;5012405;28;20033;-71
2022/04/03 06:21:45;;;;;;;12.90;5.40;;;;;;;;;;5008222;28;20025;-69
2022/04/03 06:24:10;;;;;;;9.23;5.20;;;;;;;;;;5019814;28;20191;-69
2022/04/03 06:26:35;;;;;;;17.35;7.78;;;;;;;;;;5017731;28;20285;-70
2022/04/03 06:29:00;;;;;;;13.55;6.25;;;;;;;;;;5011204;28;20021;-70
2022/04/03 06:31:25;;;;;;;9.00;5.00;;;;;;;;;;5018491;28;20072;-70
2022/04/03 06:33:51;;;;;;;13.05;4.82;;;;;;;;;;5015226;28;20026;-70
2022/04/03 06:36:16;;;;;;;9.93;4.65;;;;;;;;;;5010271;28;20028;-70
2022/04/03 06:38:41;;;;;;;8.88;4.72;;;;;;;;;;5018612;28;20421;-70
2022/04/03 06:41:08;;;;;;;13.45;6.32;;;;;;;;;;5014847;28;20313;-70
2022/04/03 06:43:34;;;;;;;8.25;4.72;;;;;;;;;;5015385;28;20025;-70
2022/04/03 06:46:00;;;;;;;9.15;4.60;;;;;;;;;;5009723;28;20485;-70
2022/04/03 06:48:26;;;;;;;12.63;5.13;;;;;;;;;;5001819;28;20455;-70
2022/04/03 06:50:51;;;;;;;12.77;4.95;;;;;;;;;;5006921;28;20163;-70
2022/04/03 06:53:17;;;;;;;11.55;5.28;;;;;;;;;;5017809;28;20523;-70
2022/04/03 06:55:42;;;;;;;10.45;5.40;;;;;;;;;;5016161;28;20033;-70
2022/04/03 06:58:07;;;;;;;10.82;4.47;;;;;;;;;;5016477;28;20029;-70
2022/04/03 07:00:33;;;;;;;8.98;4.80;;;;;;;;;;5012327;28;20752;-70
2022/04/03 07:02:59;;;;;;;10.77;4.78;;;;;;;;;;5014921;28;20029;-70
2022/04/03 07:05:24;;;;;;;9.23;4.40;;;;;;;;;;5021018;28;20485;-70
2022/04/03 07:07:53;;;;;;;8.38;4.57;;;;;;;;;;5004526;28;20338;-70
2022/04/03 07:10:18;;;;;;;7.25;4.50;;;;;;;;;;5007501;28;20072;-70
2022/04/03 07:12:43;;;;;;;9.18;4.53;;;;;;;;;;5003463;28;20093;-70
2022/04/03 07:15:11;;;;;;;10.03;4.57;;;;;;;;;;5014460;28;20026;-70
2022/04/03 07:17:37;;;;;;;11.88;4.82;;;;;;;;;;4997528;28;20743;-70
2022/04/03 07:20:02;;;;;;;9.02;4.05;;;;;;;;;;5013391;28;20160;-70
2022/04/03 07:22:27;;;;;;;12.77;4.90;;;;;;;;;;5008947;28;20534;-70
2022/04/03 07:24:53;;;;;;;8.00;4.77;;;;;;;;;;5017093;28;20021;-70
2022/04/03 07:27:18;;;;;;;8.88;5.18;;;;;;;;;;5011014;28;20768;-71
2022/04/03 07:29:43;;;;;;;7.50;4.10;;;;;;;;;;5009562;28;20030;-71
2022/04/03 07:32:08;;;;;;;9.55;4.55;;;;;;;;;;5011343;28;20264;-70
2022/04/03 07:34:33;;;;;;;10.57;5.03;;;;;;;;;;5011151;28;20015;-70
2022/04/03 07:36:59;;;;;;;8.33;4.10;;;;;;;;;;5007466;28;20025;-70
2022/04/03 07:39:26;;;;;;;8.93;4.40;;;;;;;;;;5016367;28;20351;-70
2022/04/03 07:41:51;;;;;;;9.35;4.50;;;;;;;;;;5010848;28;20253;-70
2022/04/03 07:44:16;;;;;;;12.15;4.70;;;;;;;;;;4991070;28;20037;-71
2022/04/03 07:46:42;;;;;;;8.03;4.20;;;;;;;;;;4994772;28;20025;-70
2022/04/03 07:49:07;;;;;;;7.25;4.15;;;;;;;;;;5011679;28;21005;-69
2022/04/03 07:51:32;;;;;;;7.60;3.93;;;;;;;;;;5013347;28;20018;-71
2022/04/03 07:53:57;;;;;;;6.82;4.07;;;;;;;;;;5017731;28;20265;-71
2022/04/03 07:56:23;;;;;;;10.05;4.50;;;;;;;;;;5014894;28;20022;-69
2022/04/03 07:58:48;;;;;;;7.45;4.40;;;;;;;;;;5017373;28;20103;-70
2022/04/03 08:01:13;;;;;;;7.10;4.03;;;;;;;;;;5013944;28;20441;-70
2022/04/03 08:03:38;;;;;;;6.97;4.03;;;;;;;;;;5016664;28;20089;-70
2022/04/03 08:06:04;;;;;;;6.15;3.92;;;;;;;;;;5018128;28;20271;-70
2022/04/03 08:08:30;;;;;;;5.03;3.33;;;;;;;;;;5014284;28;20026;-70
2022/04/03 08:10:56;;;;;;;6.45;3.67;;;;;;;;;;5016822;28;20489;-70
2022/04/03 08:13:21;;;;;;;7.68;3.60;;;;;;;;;;5014509;28;20018;-70
2022/04/03 08:15:47;;;;;;;5.28;3.67;;;;;;;;;;5016611;28;20494;-70
2022/04/03 08:18:12;;;;;;;11.18;4.00;;;;;;;;;;5018708;28;20026;-70
2022/04/03 08:20:38;;;;;;;5.10;3.47;;;;;;;;;;5017827;28;20057;-70
2022/04/03 08:23:05;;;;;;;9.15;3.35;;;;;;;;;;5015581;28;20287;-70
2022/04/03 08:25:31;;;;;;;6.20;4.00;;;;;;;;;;5018528;28;20428;-70
2022/04/03 08:27:56;;;;;;;7.25;3.70;;;;;;;;;;5013165;28;20025;-70
2022/04/03 08:30:22;;;;;;;5.78;3.60;;;;;;;;;;5020122;28;20025;-70
2022/04/03 08:32:48;;;;;;;5.72;3.25;;;;;;;;;;5021276;28;20040;-70
2022/04/03 08:35:14;;;;;;;6.35;3.28;;;;;;;;;;5021126;28;20155;-70
2022/04/03 08:37:40;;;;;;;5.97;3.80;;;;;;;;;;5014348;28;20018;-70
2022/04/03 08:40:05;;;;;;;6.80;4.13;;;;;;;;;;5017575;28;20033;-70
2022/04/03 08:42:31;;;;;;;5.88;3.20;;;;;;;;;;5025140;28;20565;-70
2022/04/03 08:44:56;;;;;;;10.80;3.63;;;;;;;;;;5015154;28;20036;-70
2022/04/03 08:47:22;;;;;;;6.20;3.58;;;;;;;;;;5019906;28;20267;-70
2022/04/03 08:49:47;;;;;;;6.75;3.78;;;;;;;;;;5013529;28;20025;-69
2022/04/03 08:52:13;;;;;;;6.18;3.50;;;;;;;;;;5021933;28;20013;-69
2022/04/03 08:54:38;;;;;;;5.63;3.55;;;;;;;;;;5015003;28;20037;-69
2022/04/03 08:57:04;;;;;;;7.93;3.85;;;;;;;;;;5018867;28;20120;-69
2022/04/03 08:59:29;;;;;;;7.28;4.18;;;;;;;;;;5010317;28;20037;-69
2022/04/03 09:01:54;;;;;;;6.72;3.33;;;;;;;;;;5016462;28;20036;-72
2022/04/03 09:04:21;;;;;;;12.57;4.07;;;;;;;;;;5018584;28;20041;-69
2022/04/03 09:06:56;;;;;;;5.13;2.45;;;;;;;;;;5018579;28;20026;-67
2022/04/03 09:09:22;;;;;;;3.35;1.92;;;;;;;;;;5013796;28;20025;-68
2022/04/03 09:12:05;;;;;;;8.88;2.97;;;;;;;;;;5009273;28;20020;-70
2022/04/03 09:14:30;;;;;;;3.60;2.05;;;;;;;;;;5019317;28;20048;-68
2022/04/03 09:16:55;;;;;;;3.97;2.25;;;;;;;;;;4998597;28;20111;-68
2022/04/03 09:19:30;;;;;;;4.40;2.73;;;;;;;;;;5015759;28;20066;-70
2022/04/03 09:21:55;;;;;;;4.00;2.30;;;;;;;;;;5016500;28;20355;-68
2022/04/03 09:24:20;;;;;;;3.97;2.20;;;;;;;;;;5017869;28;20588;-69
2022/04/03 09:26:56;;;;;;;4.60;2.67;;;;;;;;;;5013734;28;20276;-70
2022/04/03 09:29:21;;;;;;;8.27;3.42;;;;;;;;;;5017523;28;20287;-69
2022/04/03 09:31:46;;;;;;;7.80;2.80;;;;;;;;;;5026055;28;20040;-70
2022/04/03 09:34:18;;;;;;;4.88;2.30;;;;;;;;;;5016818;28;20482;-68
2022/04/03 09:36:54;;;;;;;6.13;3.10;;;;;;;;;;5012160;28;20034;-68
2022/04/03 09:39:24;;;;;;;4.15;2.67;;;;;;;;;;5013054;28;20036;-69
2022/04/03 09:42:12;;;;;;;7.15;2.78;;;;;;;;;;5008598;28;20018;-69
2022/04/03 09:44:41;;;;;;;8.93;3.05;;;;;;;;;;5018134;28;20029;-69
2022/04/03 09:47:26;;;;;;;5.50;2.55;;;;;;;;;;5014182;28;20026;-69
2022/04/03 09:49:55;;;;;;;7.25;2.70;;;;;;;;;;5018573;28;20017;-68
2022/04/03 09:52:41;;;;;;;10.90;2.67;;;;;;;;;;5018788;28;20525;-69
2022/04/03 09:55:07;;;;;;;3.03;2.10;;;;;;;;;;5000751;28;20177;-72
2022/04/03 09:57:33;;;;;;;4.72;2.30;;;;;;;;;;5010590;28;20025;-72
2022/04/03 09:59:58;;;;;;;4.68;2.15;;;;;;;;;;5020882;28;20032;-69
2022/04/03 10:02:24;;;;;;;4.10;1.77;;;;;;;;;;5017356;28;20021;-68
2022/04/03 10:04:50;;;;;;;6.50;2.30;;;;;;;;;;5020466;28;20025;-69
2022/04/03 10:07:16;;;;;;;6.43;2.08;;;;;;;;;;5018362;28;20084;-69
2022/04/03 10:09:51;;;;;;;6.47;2.20;;;;;;;;;;5018425;28;20021;-69
2022/04/03 10:12:18;;;;;;;2.92;2.03;;;;;;;;;;5023693;28;20014;-69
2022/04/03 10:14:47;;;;;;;4.47;2.17;;;;;;;;;;5005036;28;20621;-73
2022/04/03 10:17:13;;;;;;;3.63;2.03;;;;;;;;;;5020977;28;20020;-69
2022/04/03 10:19:38;;;;;;;5.18;2.53;;;;;;;;;;5020052;28;20456;-70
2022/04/03 10:22:05;;;;;;;5.32;2.05;;;;;;;;;;5023995;28;20482;-71
2022/04/03 10:24:30;;;;;;;4.05;2.03;;;;;;;;;;5015807;28;20060;-73
2022/04/03 10:27:15;;;;;;;4.05;2.00;;;;;;;;;;5023994;28;20053;-69
2022/04/03 10:29:41;;;;;;;3.35;1.48;;;;;;;;;;5018492;28;20052;-69
2022/04/03 10:32:06;;;;;;;7.57;2.08;;;;;;;;;;5012276;28;20026;-69
2022/04/03 10:34:43;;;;;;;2.70;1.60;;;;;;;;;;5022531;28;20014;-69
2022/04/03 10:37:26;;;;;;;7.10;2.33;;;;;;;;;;5010232;28;20018;-69
2022/04/03 10:39:52;;;;;;;8.65;2.50;;;;;;;;;;5013555;28;20518;-69
2022/04/03 10:42:25;;;;;;;6.47;2.88;;;;;;;;;;5010291;28;20048;-69
2022/04/03 10:45:09;;;;;;;7.25;2.80;;;;;;;;;;5015865;28;20022;-69
2022/04/03 10:47:34;;;;;;;8.95;3.45;;;;;;;;;;5017072;28;20021;-70
2022/04/03 10:50:00;;;;;;;5.82;3.17;;;;;;;;;;5028384;28;20028;-69
2022/04/03 10:52:26;;;;;;;7.97;3.33;;;;;;;;;;5016924;28;20068;-70
2022/04/03 10:54:55;;;;;;;7.82;3.05;;;;;;;;;;5014753;28;20025;-69
2022/04/03 10:57:39;;;;;;;5.13;2.67;;;;;;;;;;5013477;28;20470;-69
2022/04/03 11:00:13;;;;;;;5.50;2.88;;;;;;;;;;5018424;28;20021;-69
2022/04/03 11:02:49;;;;;;;6.10;2.92;;;;;;;;;;4999742;28;20021;-69
2022/04/03 11:05:29;;;;;;;4.90;2.65;;;;;;;;;;5016775;28;20026;-69
2022/04/03 11:08:00;;;;;;;5.05;2.67;;;;;;;;;;5016133;28;20030;-69
2022/04/03 11:10:45;;;;;;;4.38;2.45;;;;;;;;;;5023636;28;20029;-69
2022/04/03 11:13:11;;;;;;;6.93;3.10;;;;;;;;;;4997121;28;20108;-69
2022/04/03 11:15:45;;;;;;;5.97;2.90;;;;;;;;;;5012058;28;20100;-69
2022/04/03 11:18:30;;;;;;;6.13;2.90;;;;;;;;;;5021438;28;20079;-69
2022/04/03 11:21:06;;;;;;;11.02;3.45;;;;;;;;;;5013739;28;20018;-69
2022/04/03 11:23:34;;;;;;;6.50;3.05;;;;;;;;;;5018104;28;20025;-69
2022/04/03 11:25:59;;;;;;;10.30;2.90;;;;;;;;;;5019092;28;20465;-70
2022/04/03 11:28:25;;;;;;;6.82;2.75;;;;;;;;;;5020946;28;20045;-69
2022/04/03 11:30:50;;;;;;;8.23;3.00;;;;;;;;;;5025779;28;20086;-69
2022/04/03 11:33:15;;;;;;;5.13;2.70;;;;;;;;;;5019804;28;20025;-69
2022/04/03 11:35:41;;;;;;;9.02;3.50;;;;;;;;;;5015054;28;20622;-69
2022/04/03 11:38:06;;;;;;;7.10;3.13;;;;;;;;;;5025853;28;20474;-69
2022/04/03 11:40:33;;;;;;;8.32;2.55;;;;;;;;;;5024997;28;20071;-69
2022/04/03 11:43:12;;;;;;;10.63;3.38;;;;;;;;;;5019427;28;20052;-69
2022/04/03 11:45:38;;;;;;;5.88;2.50;;;;;;;;;;5022289;28;20022;-69
2022/04/03 11:48:17;;;;;;;8.00;3.50;;;;;;;;;;5028066;28;20029;-69
2022/04/03 11:50:42;;;;;;;9.45;3.08;;;;;;;;;;5018853;28;20116;-69
2022/04/03 11:53:10;;;;;;;9.27;2.95;;;;;;;;;;5029345;28;20096;-69
2022/04/03 11:55:36;;;;;;;10.60;2.53;;;;;;;;;;5025281;28;20041;-69
2022/04/03 11:58:04;;;;;;;6.45;2.88;;;;;;;;;;5015014;28;20433;-69
2022/04/03 12:00:30;;;;;;;5.13;2.42;;;;;;;;;;5024470;28;20022;-69
2022/04/03 12:02:59;;;;;;;5.60;2.83;;;;;;;;;;5025557;28;20027;-69
2022/04/03 12:05:24;;;;;;;3.13;2.10;;;;;;;;;;5019794;28;20084;-69
2022/04/03 12:07:50;;;;;;;7.28;2.15;;;;;;;;;;5023175;28;20429;-69
2022/04/03 12:10:25;;;;;;;7.85;2.15;;;;;;;;;;5022650;28;20112;-69
2022/04/03 12:12:51;;;;;;;5.25;2.17;;;;;;;;;;5004350;28;20038;-69
2022/04/03 12:15:19;;;;;;;5.30;2.35;;;;;;;;;;5021204;28;20100;-69
2022/04/03 12:17:44;;;;;;;7.90;2.10;;;;;;;;;;5024953;28;20034;-69
2022/04/03 12:20:11;;;;;;;5.22;3.13;;;;;;;;;;5008593;28;20083;-69
2022/04/03 12:22:40;;;;;;;4.88;2.60;;;;;;;;;;5017002;28;20014;-69
2022/04/03 12:25:05;;;;;;;5.55;2.10;;;;;;;;;;5016318;28;20029;-69
2022/04/03 12:27:32;;;;;;;3.42;2.08;;;;;;;;;;5020676;28;20032;-69
2022/04/03 12:29:57;;;;;;;7.47;2.45;;;;;;;;;;5021055;28;20021;-69
2022/04/03 12:32:25;;;;;;;5.13;2.00;;;;;;;;;;5019801;28;20428;-69
2022/04/03 12:34:51;;;;;;;2.60;1.60;;;;;;;;;;5017931;28;20018;-69
2022/04/03 12:37:17;;;;;;;4.28;1.65;;;;;;;;;;5016504;28;20362;-69
2022/04/03 12:39:43;;;;;;;3.65;1.63;;;;;;;;;;5019783;28;20124;-69
2022/04/03 12:42:12;;;;;;;7.97;1.88;;;;;;;;;;5011588;28;20028;-69
2022/04/03 12:44:44;;;;;;;4.20;1.95;;;;;;;;;;5013237;28;20109;-69
2022/04/03 12:47:17;;;;;;;3.75;2.05;;;;;;;;;;5016944;28;20030;-69
2022/04/03 12:50:10;;;;;;;5.25;1.38;;;;;;;;;;5014609;28;20033;-69
2022/04/03 12:52:37;;;;;;;3.28;1.40;;;;;;;;;;5018621;28;20093;-69
2022/04/03 12:55:02;;;;;;;3.05;1.20;;;;;;;;;;5018365;28;20538;-69
2022/04/03 13:00:16;;;;;;;3.13;1.60;;;;;;;;;;5008541;28;20036;-69
2022/04/03 13:02:45;;;;;;;5.18;1.67;;;;;;;;;;5025564;28;20013;-69
2022/04/03 13:05:16;;;;;;;4.55;1.95;;;;;;;;;;5016884;28;20040;-69
2022/04/03 13:07:42;;;;;;;3.50;1.10;;;;;;;;;;5011477;28;20034;-69
2022/04/03 13:10:17;;;;;;;3.10;1.23;;;;;;;;;;5020514;28;20032;-69
2022/04/03 13:12:45;;;;;;;2.78;1.73;;;;;;;;;;5020697;28;20010;-69
2022/04/03 13:15:10;;;;;;;9.38;1.60;;;;;;;;;;5021488;28;20052;-69
2022/04/03 13:17:36;;;;;;;4.05;1.00;;;;;;;;;;5017400;28;20470;-69
2022/04/03 13:20:01;;;;;;;3.90;1.38;;;;;;;;;;5023034;28;20032;-69
2022/04/03 13:22:26;;;;;;;3.38;1.30;;;;;;;;;;5005658;28;20068;-69
2022/04/03 13:24:52;;;;;;;4.75;1.50;;;;;;;;;;5017323;28;20025;-69
2022/04/03 13:27:17;;;;;;;3.37;1.03;;;;;;;;;;5011693;28;20018;-69
2022/04/03 13:29:42;;;;;;;2.92;1.40;;;;;;;;;;5005351;28;20364;-69
2022/04/03 13:32:07;;;;;;;1.65;1.10;;;;;;;;;;5008828;28;20562;-70
2022/04/03 13:34:32;;;;;;;5.68;1.17;;;;;;;;;;5017874;28;20390;-69
2022/04/03 13:36:58;;;;;;;4.32;1.20;;;;;;;;;;5011535;28;20674;-69
2022/04/03 13:39:23;;;;;;;2.00;1.20;;;;;;;;;;5022740;28;20461;-69
2022/04/03 13:41:49;;;;;;;6.30;1.20;;;;;;;;;;5010022;28;20286;-69
2022/04/03 13:44:16;;;;;;;5.65;1.33;;;;;;;;;;5020705;28;20029;-69
2022/04/03 13:46:41;;;;;;;2.00;1.30;;;;;;;;;;4993429;28;20088;-69
2022/04/03 13:49:07;;;;;;;4.90;1.90;;;;;;;;;;5021097;28;20026;-69
2022/04/03 13:51:32;;;;;;;3.13;1.65;;;;;;;;;;5009019;28;20466;-69
2022/04/03 13:53:57;;;;;;;4.07;2.00;;;;;;;;;;5017299;28;20044;-69
2022/04/03 13:56:24;;;;;;;3.00;1.55;;;;;;;;;;5014418;28;20017;-69
2022/04/03 13:58:50;;;;;;;8.10;2.13;;;;;;;;;;5020056;28;20022;-70
2022/04/03 14:01:17;;;;;;;4.93;1.27;;;;;;;;;;5006451;28;20401;-70
2022/04/03 14:03:46;;;;;;;4.82;1.40;;;;;;;;;;5021598;28;20022;-69
2022/04/03 14:06:11;;;;;;;5.07;1.80;;;;;;;;;;5014481;28;20018;-69
2022/04/03 14:08:36;;;;;;;3.38;1.67;;;;;;;;;;5019790;28;20435;-69
2022/04/03 14:11:01;;;;;;;5.15;1.80;;;;;;;;;;5016186;28;20034;-69
2022/04/03 14:13:28;;;;;;;5.65;2.10;;;;;;;;;;5025465;28;20024;-69
2022/04/03 14:15:54;;;;;;;4.03;1.38;;;;;;;;;;5009301;28;20096;-69
2022/04/03 14:18:24;;;;;;;3.55;1.67;;;;;;;;;;5018039;28;20577;-69
2022/04/03 14:20:50;;;;;;;4.65;1.60;;;;;;;;;;5018460;28;20453;-70
2022/04/03 14:23:15;;;;;;;5.35;1.77;;;;;;;;;;5011815;28;20092;-69
2022/04/03 14:25:41;;;;;;;7.53;1.80;;;;;;;;;;5008223;28;20497;-69
2022/04/03 14:28:06;;;;;;;3.80;1.67;;;;;;;;;;5013478;28;20034;-69
2022/04/03 14:30:31;;;;;;;2.60;1.30;;;;;;;;;;5020022;28;20097;-68
2022/04/03 14:32:57;;;;;;;2.88;1.20;;;;;;;;;;5016656;28;20021;-68
2022/04/03 14:35:26;;;;;;;8.02;2.10;;;;;;;;;;5003323;28;20018;-69
2022/04/03 14:37:51;;;;;;;6.28;1.58;;;;;;;;;;5006044;28;20018;-69
2022/04/03 14:40:17;;;;;;;6.60;1.33;;;;;;;;;;5015093;28;20714;-71